Terminal Aerodrome Forecast
Issued by NWS Bismarck, ND

Home | Current Version | Previous Version | Text Only | Print | Product List | Glossary On
Versions: 1 2 3 4 5 6 7 8 9 10 11 12 13 14 15 16 17 18 19 20 21 22
000
FTUS43 KBIS 240500 RRA
TAFISN
TAF
KISN 240555Z 2406/2506 08008KT P6SM VCSH BKN090 OVC140
      TEMPO 2406/2410 06007KT -FZRA BKN045
     FM241000 04007KT P6SM VCSH SCT018 BKN035
     FM241300 VRB06KT 4SM -RASN BR BKN020 OVC035
     FM241600 34014KT 1SM -SN BKN012 OVC020
     FM241800 32019G27KT 3/4SM -SN BR OVC015
     FM250100 32018G26KT P6SM BKN018 OVC025=

USA.gov is the U.S. government's official web portal to all federal, state and local government web resources and services.